Relevés horaires Spa / La Sauveniere (Belgique)


Relevés horaires à Spa / La Sauveniere - Samedi 24 Avr. 2021
Heure UTC1 Température [°C] Vent [km/h] Hum. [%] Pres.4 [hPa] Visi. [Km] Nébu. [octa] Préc.5 [mm] Cond.
2m. Res. Ros. Dir.2 Vit. Moy. Raf.3
23:00 3.2 3.2 -0.9 NE 3.7 3.7 7.4 74 1026.3(0.3/3h) 30 0/8 -- --
22:00 3.6 3.6 -0.9 NNE 3.7 3.7 9.3 72 1026.1(0.2/3h) 30 0/8 -- --
21:00 4.9 4.9 -- ENE 1.9 5.6 11.1 -- 1025.6(0.4/3h) 30 0/8 -- --
20:00 5.7 4.7 -0.1 NE 5.6 5.6 11.1 66 1025.5(0.3/3h) 27 0/8 -- --
19:00 7.3 7.3 -- NNE 3.7 5.6 11.1 -- 1025.1(0.3/3h) 40 0/8 -- --
18:00 9.4 8.9 -0.6 N 5.6 11.1 16.7 50 1024.3(-0.3/3h) 35 0/8 0/12h
--
17:00 10.6 9.8 -0.5 N 7.4 9.3 13.0 46 1024.2(-0.6/3h) 29 0/8 -- --
16:00 11.1 10.4 -1.6 N 7.4 9.3 16.7 41 1024(-1.0/3h) 30 0/8 -- --
15:00 11.2 10.2 -0.4 N 9.3 11.1 16.7 45 1024.2(-0.8/3h) 28 0/8 -- --
14:00 10.6 9.5 1.0 N 9.3 11.1 16.7 51 1024.8(-0.6/3h) 28 0/8 -- --
13:00 10.4 9.6 0.7 N 7.4 9.3 16.7 51 1025.2(-0.7/3h) 30 0/8 -- --
12:00 10.1 9.3 0.3 N 7.4 9.3 16.7 50 1025.3(-0.8/3h) 35 0/8 0/6h
--
11:00 9.2 7.8 0.2 N 9.3 9.3 16.7 53 1025.7(-0.7/3h) 29 0/8 -- --
10:00 8.7 7.6 -0.6 NNO 7.4 7.4 13.0 52 1026.3(0.1/3h) 30 0/8 -- --
09:00 7.9 7.2 -1.9 E 5.6 9.3 14.8 50 1026.6(0.1/3h) 35 0/8 -- --
08:00 7.6 5.9 -1.1 ENE 9.3 9.3 14.8 54 1026.8(0.5/3h) 35 0/8 -- --
07:00 6.3 4.4 -1.0 ENE 9.3 9.3 14.8 59 1026.9(0.4/3h) 35 0/8 -- --
06:00 5.2 4.1 -0.8 E 5.6 5.6 9.3 65 1027(-0.1/3h) 29 0/8 0/12h
--
05:00 3.0 1.6 -1.4 ESE 5.6 5.6 7.4 73 1027.2(-0.3/3h) 21 0/8 -- --
04:00 2.1 2.1 -1.2 E 3.7 5.6 5.6 79 1027.4(-0.6/3h) 17 0/8 -- --
03:00 1.6 1.6 -0.9 E 1.9 3.7 7.4 83 1027.7(-0.5/3h) 17 0/8 -- --
02:00 2.9 2.9 -0.9 E 1.9 3.7 3.7 76 1027.6(-0.6/3h) 22 0/8 -- --
01:00 2.8 2.8 -0.9 ESE 1.9 3.7 7.4 77 1027.9(-0.5/3h) 21 0/8 -- --
00:00 4.1 4.1 0.1 ENE 3.7 5.6 7.4 75 1027.7(-0.4/3h) 21 0/8 0/6h
0/24h
--

1 Coordinated Universal Time. Actuellement il est 14:00 locale et 12:00 UTC.

2 Le vent souffle depuis la direction indiquée vers la direction oposée.

3 Les rafales max. sont disponible 40 min après l'heure du relevé.

4 Pour les stations d'altitude (plus de 600m) le géopotentiel du niveau le plus proche de la pression obligatoire est indiqué.

5 Les stations disposant d'un diffuseur peuvent indiquer "trace". Cela signifie que des précipitations ont touchés le sol mais que la quantité est inférieure à 0.1 mm.

Récapitulatif de la journée
Température [°C] Vent [km/h] Ensoleillement4 [h] Precipitations totale5 [mm] Pression [Hpa]
Min1 Max.2 Moy.3 Max. Min Max.
1.2 11.8 7.2 16.7 0 h 0 min 0 1024.0 1027.9

1 Température minimale relevée entre 18:00 UTC la veille et 18:00 UTC le jour donné.

2 Température maximale relevée entre 06:00 UTC le jour donné et 06:00 UTC le lendemain.

3 Vent moyen de la journée basé sur les relevés horaires.

4 Ensoleillement en heures relevé entre 06:00 UTC la veille et 06:00 UTC le jour donné.

5 Précipitations totales tombées entre 06:00 UTC la jour donné et 06:00 UTC le lendemain.

Graphiques horaires